Latest Weather Observations for Lucas Heights

IDN60801

Issued at 5:32 am EDT Friday 24 November 2017 (issued every 30 minutes, with the page automatically refreshed every 10 minutes)

About weather observations | Map of weather stations | Latest weather observations for NSW | Other Formats
Station Details ID: 066023 Name: LUCAS HEIGHTS AWS Lat: -34.05 Lon: 150.98 Height: 140.0 m
Data from the previous 72 hours. | See also: Recent months for locations in New South Wales
Date/Time
EDT
Temp
°C
App
Temp
°C
Dew
Point
°C
Rel
Hum
%
Delta-T
°C
Wind Press
QNH
hPa
Press
MSL
hPa
Rain since
9am
mm
Dir  Spd
km/h
Gust
km/h
Spd
kts
Gust
kts
24/05:15am 15.5 15.1 14.0 91 0.9 N 9 11 5 6 1015.3 - 0.0
24/05:00am 15.2 15.2 13.7 91 0.8 N 6 9 3 5 1015.3 - 0.0
24/04:45am 15.3 15.7 13.7 90 0.9 NNE 4 6 2 3 1015.2 - 0.0
24/04:30am 15.5 15.5 13.7 89 1.0 NE 6 7 3 4 1014.9 - 0.0
24/04:15am 15.9 15.9 14.2 90 1.0 N 7 9 4 5 1014.9 - 0.0
24/04:00am 16.3 16.4 14.4 88 1.1 N 7 9 4 5 1014.9 - 0.0
24/03:45am 16.6 16.8 14.7 88 1.1 N 7 9 4 5 1015.0 - 0.0
24/03:30am 16.7 16.9 14.8 88 1.1 N 7 9 4 5 1015.1 - 0.0
24/03:15am 16.8 16.6 14.8 88 1.2 NNE 9 11 5 6 1015.2 - 0.0
24/03:00am 16.9 17.3 14.8 87 1.2 NE 6 9 3 5 1015.3 - 0.0
24/02:45am 17.2 17.7 15.1 87 1.2 NE 6 9 3 5 1015.3 - 0.0
24/02:30am 17.0 17.4 14.8 87 1.3 NE 6 7 3 4 1015.3 - 0.0
24/02:15am 17.1 17.5 14.8 86 1.3 ENE 6 7 3 4 1015.4 - 0.0
24/02:00am 17.3 17.7 14.8 85 1.5 ENE 6 9 3 5 1015.4 - 0.0
24/01:45am 17.4 17.7 14.9 85 1.5 ENE 7 11 4 6 1015.3 - 0.0
24/01:30am 17.6 17.1 14.8 84 1.6 NE 11 15 6 8 1015.3 - 0.0
24/01:15am 17.5 17.2 14.5 82 1.7 NE 9 13 5 7 1015.5 - 0.0
24/01:00am 17.6 16.6 14.5 82 1.8 NNE 13 19 7 10 1015.5 - 0.0
24/12:45am 17.8 16.4 14.4 80 2.0 NNE 15 19 8 10 1015.8 - 0.0
24/12:30am 18.2 17.9 14.5 79 2.1 NNE 9 13 5 7 1016.2 - 0.0
24/12:15am 18.5 18.2 14.5 77 2.3 NE 9 15 5 8 1016.3 - 0.0
24/12:00am 18.8 18.2 14.6 76 2.5 NE 11 15 6 8 1016.4 - 0.0
 
Date/Time
EDT
Temp
°C
App
Temp
°C
Dew
Point
°C
Rel
Hum
%
Delta-T
°C
Wind Press
QNH
hPa
Press
MSL
hPa
Rain since
9am
mm
Dir  Spd
km/h
Gust
km/h
Spd
kts
Gust
kts
23/11:45pm 19.2 19.4 14.7 75 2.6 NE 7 11 4 6 1016.6 - 0.0
23/11:30pm 19.3 19.3 15.2 77 2.4 NE 9 15 5 8 1016.7 - 0.0
23/11:15pm 19.3 18.9 15.3 77 2.4 NE 11 15 6 8 1016.8 - 0.0
23/11:00pm 19.4 19.5 15.4 77 2.4 NE 9 13 5 7 1016.9 - 0.0
23/10:45pm 19.5 19.9 15.3 76 2.5 ENE 7 11 4 6 1017.0 - 0.0
23/10:30pm 19.5 20.0 15.1 76 2.6 E 6 9 3 5 1017.1 - 0.0
23/10:15pm 19.6 20.1 15.1 75 2.7 E 6 7 3 4 1017.2 - 0.0
23/10:00pm 19.6 20.5 15.0 75 2.7 ESE 4 6 2 3 1017.2 - 0.0
23/09:45pm 19.6 20.9 15.1 75 2.7 E 2 4 1 2 1017.1 - 0.0
23/09:30pm 19.4 20.6 14.9 75 2.6 N 2 6 1 3 1016.9 - 0.0
23/09:15pm 19.5 20.3 14.7 74 2.8 NNE 4 6 2 3 1016.7 - 0.0
23/09:00pm 19.8 20.6 14.7 72 3.0 NNE 4 13 2 7 1016.5 - 0.0
23/08:45pm 20.0 19.0 14.7 71 3.1 NNE 13 26 7 14 1015.9 - 0.0
23/08:30pm 20.0 18.3 14.6 71 3.2 NNE 17 24 9 13 1015.8 - 0.0
23/08:15pm 20.1 19.5 14.6 70 3.2 NNE 11 19 6 10 1015.7 - 0.0
23/08:00pm 20.3 19.8 14.8 70 3.2 NNE 11 24 6 13 1015.5 - 0.0
23/07:45pm 20.5 19.2 14.8 70 3.4 NNE 15 24 8 13 1015.4 - 0.0
23/07:30pm 20.6 19.0 15.0 70 3.3 NNE 17 28 9 15 1015.2 - 0.0
23/07:15pm 20.8 19.2 15.1 70 3.4 NE 17 28 9 15 1015.1 - 0.0
23/07:00pm 20.9 19.4 15.2 70 3.4 NE 17 26 9 14 1015.0 - 0.0
23/06:45pm 21.2 19.7 15.2 68 3.6 NE 17 30 9 16 1014.6 - 0.0
23/06:30pm 21.5 19.4 14.8 65 4.0 NE 19 30 10 16 1014.3 - 0.0
23/06:15pm 21.8 19.1 14.5 63 4.3 NE 22 32 12 17 1014.1 - 0.0
23/06:00pm 22.1 19.7 14.3 61 4.6 NE 20 32 11 17 1013.9 - 0.0
23/05:45pm 22.7 20.3 14.4 59 4.9 ENE 20 32 11 17 1013.9 - 0.0
23/05:30pm 23.4 20.9 14.2 56 5.4 ENE 20 30 11 16 1013.9 - 0.0
23/05:15pm 23.8 21.5 14.0 54 5.8 NE 19 26 10 14 1014.1 - 0.0
23/05:00pm 24.1 21.8 14.1 53 5.9 ENE 19 26 10 14 1014.1 - 0.0
23/04:45pm 24.3 21.9 14.4 54 5.9 ENE 20 30 11 16 1014.0 - 0.0
23/04:30pm 24.3 22.0 14.7 55 5.7 NE 20 33 11 18 1013.7 - 0.0
23/04:15pm 24.2 20.9 14.1 53 6.0 ENE 24 33 13 18 1013.6 - 0.0
23/04:00pm 24.5 21.7 14.3 53 6.1 NE 22 32 12 17 1013.8 - 0.0
23/03:45pm 24.5 21.5 14.7 54 5.9 ENE 24 32 13 17 1014.0 - 0.0
23/03:30pm 24.6 22.0 14.8 54 5.9 ENE 22 32 12 17 1014.2 - 0.0
23/03:15pm 24.5 22.3 15.0 55 5.7 ENE 20 30 11 16 1014.3 - 0.0
23/03:00pm 24.7 22.2 15.1 55 5.8 NE 22 30 12 16 1014.4 - 0.0
23/02:45pm 24.8 22.8 15.5 56 5.7 ENE 20 28 11 15 1014.6 - 0.0
23/02:30pm 24.7 22.1 15.0 54 5.8 ENE 22 32 12 17 1014.7 - 0.0
23/02:15pm 24.8 22.3 15.1 54 5.9 ENE 22 32 12 17 1014.8 - 0.0
23/02:00pm 24.7 21.7 14.7 53 6.0 ENE 24 33 13 18 1015.1 - 0.0
23/01:45pm 24.6 22.0 14.8 54 5.9 ENE 22 32 12 17 1015.2 - 0.0
23/01:30pm 24.7 21.6 14.6 53 6.0 ENE 24 35 13 19 1015.4 - 0.0
23/01:15pm 24.0 21.6 14.3 54 5.8 NE 20 32 11 17 1015.6 - 0.0
23/01:00pm 24.5 22.1 14.3 53 6.1 ENE 20 32 11 17 1015.7 - 0.0
23/12:45pm 24.4 21.9 14.2 53 6.1 ENE 20 28 11 15 1015.9 - 0.0
23/12:30pm 25.1 22.8 14.1 50 6.5 ENE 19 32 10 17 1016.1 - 0.0
23/12:15pm 24.5 23.2 13.6 50 6.4 NNE 13 26 7 14 1016.3 - 0.0
23/12:00pm 24.7 23.3 13.5 49 6.6 ENE 13 20 7 11 1016.5 - 0.0
23/11:45am 24.5 22.6 13.0 48 6.7 NE 15 24 8 13 1016.6 - 0.0
23/11:30am 24.4 23.2 12.9 48 6.7 NE 11 19 6 10 1016.8 - 0.0
23/11:15am 24.0 23.1 13.7 52 6.1 NNE 11 19 6 10 1016.9 - 0.0
23/11:00am 23.3 22.1 13.9 55 5.5 NE 13 22 7 12 1017.1 - 0.0
23/10:45am 22.3 21.2 13.2 56 5.3 N 11 20 6 11 1017.4 - 0.0
23/10:30am 22.2 21.2 13.3 57 5.2 NNW 11 19 6 10 1017.4 - 0.0
23/10:15am 22.9 22.5 14.0 57 5.2 N 9 17 5 9 1017.3 - 0.0
23/10:00am 22.0 21.1 13.8 59 4.8 N 11 22 6 12 1017.4 - 0.0
23/09:45am 21.3 20.0 13.7 62 4.4 N 13 20 7 11 1017.5 - 0.0
23/09:30am 21.0 19.8 13.9 64 4.1 NNW 13 22 7 12 1017.6 - 0.0
23/09:15am 20.9 20.2 14.3 66 3.9 NNW 11 19 6 10 1017.7 - 0.0
23/09:00am 20.3 19.6 14.3 68 3.5 NNW 11 19 6 10 1017.7 - 2.7
23/08:45am 20.3 20.1 14.8 70 3.2 NNW 9 19 5 10 1017.8 - 2.7
23/08:30am 20.2 20.5 15.1 72 3.0 NNW 7 15 4 8 1017.8 - 2.7
23/08:15am 19.7 20.3 15.3 76 2.6 N 6 9 3 5 1017.8 - 2.7
23/08:00am 19.3 20.4 15.5 78 2.3 NW 4 9 2 5 1017.7 - 2.7
23/07:45am 19.1 20.6 16.6 85 1.5 NW 4 6 2 3 1017.6 - 2.7
23/07:30am 18.5 20.5 17.0 91 0.9 W 2 6 1 3 1017.5 - 2.7
23/07:15am 17.1 18.7 15.9 93 0.7 W 2 4 1 2 1017.5 - 2.7
23/07:00am 16.1 17.0 15.0 93 0.6 WSW 4 6 2 3 1017.5 - 2.7
23/06:45am 15.3 15.5 14.3 94 0.6 SW 6 7 3 4 1017.4 - 2.7
23/06:30am 14.4 14.3 13.4 94 0.6 SW 6 7 3 4 1017.3 - 2.7
23/06:15am 14.0 13.8 12.9 93 0.6 WSW 6 7 3 4 1017.2 - 2.7
23/06:00am 14.1 13.9 13.0 93 0.6 SW 6 7 3 4 1017.1 - 2.7
23/05:45am 14.3 14.0 13.2 93 0.6 SW 7 9 4 5 1017.0 - 2.7
23/05:30am 14.2 13.8 13.1 93 0.6 SW 7 9 4 5 1016.7 - 2.7
23/05:15am 14.2 13.8 13.1 93 0.6 SW 7 7 4 4 1016.6 - 2.7
23/05:00am 14.0 13.7 12.8 92 0.7 SW 6 7 3 4 1016.5 - 2.7
23/04:45am 14.2 14.4 13.0 92 0.7 WSW 4 6 2 3 1016.5 - 2.7
23/04:30am 14.2 14.4 13.1 93 0.6 WSW 4 6 2 3 1016.4 - 2.7
23/04:15am 14.1 14.3 12.9 92 0.7 WSW 4 6 2 3 1016.4 - 2.7
23/04:00am 14.5 14.7 13.2 92 0.7 W 4 6 2 3 1016.3 - 2.7
23/03:45am 15.3 15.9 14.2 93 0.6 W 4 7 2 4 1016.4 - 2.7
23/03:30am 14.7 14.5 13.5 92 0.7 WSW 7 9 4 5 1016.6 - 2.7
23/03:15am 14.2 14.0 13.0 92 0.7 WSW 6 7 3 4 1016.7 - 2.7
23/03:00am 14.2 14.4 12.9 92 0.7 W 4 7 2 4 1016.8 - 2.7
23/02:45am 14.3 14.5 13.1 92 0.7 W 4 7 2 4 1016.9 - 2.7
23/02:30am 14.2 14.0 12.9 92 0.7 W 6 9 3 5 1017.1 - 2.7
23/02:15am 14.1 13.8 12.8 92 0.7 WNW 6 7 3 4 1017.2 - 2.7
23/02:00am 14.3 14.5 13.0 92 0.7 WNW 4 6 2 3 1017.2 - 2.7
23/01:45am 14.4 14.2 13.0 91 0.8 NW 6 6 3 3 1017.3 - 2.7
23/01:30am 14.4 14.2 13.0 91 0.8 NNW 6 7 3 4 1017.4 - 2.7
23/01:15am 14.5 14.2 12.8 89 0.9 NNW 6 6 3 3 1017.6 - 2.7
23/01:00am 14.9 15.2 13.4 91 0.8 NNW 4 6 2 3 1017.8 - 2.7
23/12:45am 14.9 15.2 13.4 91 0.8 NNW 4 6 2 3 1017.8 - 2.7
23/12:30am 14.8 14.7 13.2 90 0.9 - 6 7 3 4 1018.1 - 2.7
23/12:15am 14.9 15.1 13.1 89 1.0 NNE 4 6 2 3 1018.2 - 2.7
23/12:00am 15.3 15.2 13.4 88 1.1 NNE 6 9 3 5 1018.2 - 2.7
 
Date/Time
EDT
Temp
°C
App
Temp
°C
Dew
Point
°C
Rel
Hum
%
Delta-T
°C
Wind Press
QNH
hPa
Press
MSL
hPa
Rain since
9am
mm
Dir  Spd
km/h
Gust
km/h
Spd
kts
Gust
kts
22/11:45pm 15.7 15.6 13.8 88 1.1 NNE 7 9 4 5 1018.3 - 2.7
22/11:30pm 15.8 15.6 13.7 87 1.2 N 7 9 4 5 1018.4 - 2.7
22/11:15pm 16.0 15.5 13.9 87 1.2 NNE 9 13 5 7 1018.4 - 2.7
22/11:00pm 16.3 15.9 14.1 87 1.3 NE 9 11 5 6 1018.5 - 2.7
22/10:45pm 16.3 15.9 14.1 87 1.3 NE 9 13 5 7 1018.7 - 2.7
22/10:30pm 16.4 16.3 14.0 86 1.4 NE 7 11 4 6 1018.7 - 2.7
22/10:15pm 16.7 16.3 14.2 85 1.4 NE 9 11 5 6 1018.8 - 2.7
22/10:00pm 16.9 16.9 14.3 85 1.5 ENE 7 11 4 6 1018.9 - 2.7
22/09:45pm 17.1 17.2 14.4 84 1.6 ENE 7 11 4 6 1018.9 - 2.7
22/09:30pm 17.2 17.3 14.4 83 1.6 ENE 7 9 4 5 1018.9 - 2.7
22/09:15pm 17.6 17.8 14.6 82 1.7 NE 7 11 4 6 1018.8 - 2.7
22/09:00pm 17.8 18.1 14.6 81 1.9 NE 6 11 3 6 1018.8 - 2.7
22/08:45pm 18.1 18.3 14.8 81 1.9 NE 7 13 4 7 1018.7 - 2.7
22/08:30pm 18.3 17.8 14.8 80 2.0 NE 11 19 6 10 1018.5 - 2.7
22/08:15pm 18.4 17.1 14.7 79 2.2 ENE 15 22 8 12 1018.3 - 2.7
22/08:00pm 18.7 17.8 14.8 78 2.3 ENE 13 19 7 10 1018.3 - 2.7
22/07:45pm 18.8 17.5 14.8 77 2.3 ENE 15 22 8 12 1018.3 - 2.7
22/07:30pm 19.1 17.0 14.6 75 2.6 ENE 19 26 10 14 1018.1 - 2.7
22/07:15pm 19.6 17.4 14.3 71 3.1 ENE 19 30 10 16 1018.0 - 2.7
22/07:00pm 19.8 17.6 13.4 66 3.7 ENE 17 26 9 14 1017.9 - 2.7
22/06:45pm 20.3 17.7 13.3 64 4.0 ENE 19 26 10 14 1017.8 - 2.7
22/06:30pm 20.4 18.1 13.0 62 4.2 ENE 17 26 9 14 1017.7 - 2.7
22/06:15pm 20.5 18.8 13.5 64 4.0 ENE 15 24 8 13 1017.6 - 2.7
22/06:00pm 20.4 17.8 13.7 65 3.9 ENE 20 30 11 16 1017.5 - 2.7
22/05:45pm 20.6 18.2 13.9 65 3.9 E 19 30 10 16 1017.4 - 2.7
22/05:30pm 20.9 18.0 14.1 65 4.0 E 22 30 12 16 1017.5 - 2.7
22/05:15pm 21.0 18.6 14.3 65 3.9 E 20 32 11 17 1017.6 - 2.7
22/05:00pm 20.9 18.5 14.5 67 3.8 ENE 20 33 11 18 1017.7 - 2.7
22/04:45pm 20.8 19.1 14.7 68 3.6 E 17 26 9 14 1017.9 - 2.7
22/04:30pm 21.0 19.3 14.7 67 3.7 ENE 17 30 9 16 1017.9 - 2.7
22/04:15pm 21.2 19.6 14.9 67 3.7 ENE 17 26 9 14 1017.9 - 2.7
22/04:00pm 21.1 19.4 14.8 67 3.7 E 17 26 9 14 1018.0 - 2.7
22/03:45pm 21.6 20.0 14.9 65 4.0 ENE 17 26 9 14 1018.1 - 2.7
22/03:30pm 21.3 20.5 15.0 67 3.7 ENE 13 22 7 12 1018.2 - 2.7
22/03:15pm 21.6 20.5 14.4 63 4.2 ENE 13 24 7 13 1018.3 - 2.7
22/03:00pm 22.1 20.5 14.9 63 4.3 ENE 17 24 9 13 1018.4 - 2.7
22/02:45pm 21.5 20.7 15.1 67 3.8 ENE 13 26 7 14 1018.6 - 2.7
22/02:30pm 20.6 19.6 14.6 68 3.5 ENE 13 19 7 10 1018.9 - 2.7
22/02:15pm 20.2 19.3 14.9 71 3.1 ENE 13 19 7 10 1019.1 - 2.7
22/02:00pm 20.1 19.1 14.7 71 3.2 ENE 13 19 7 10 1019.2 - 2.7
22/01:45pm 20.5 19.5 14.5 68 3.5 ENE 13 20 7 11 1019.3 - 2.7
22/01:30pm 21.1 20.5 14.7 67 3.8 E 11 19 6 10 1019.4 - 2.7
22/01:15pm 21.0 20.0 14.7 67 3.7 ENE 13 19 7 10 1019.6 - 2.7
22/01:00pm 21.2 21.1 15.0 67 3.7 E 9 15 5 8 1019.7 - 2.7
22/12:45pm 20.6 20.8 14.7 69 3.5 E 7 13 4 7 1019.8 - 2.7
22/12:30pm 21.1 21.2 15.5 70 3.4 E 9 19 5 10 1020.0 - 2.7
22/12:15pm 20.2 20.8 15.8 76 2.6 ENE 7 13 4 7 1020.2 - 2.7
22/12:00pm 19.6 20.5 16.0 80 2.2 E 6 9 3 5 1020.4 - 2.7
22/11:45am 19.2 20.9 17.1 88 1.3 ESE 4 11 2 6 1020.5 - 2.7
22/11:30am 18.6 19.9 17.1 91 0.9 SSE 6 9 3 5 1020.7 - 2.7
22/11:15am 17.5 18.7 16.0 91 0.9 S 4 6 2 3 1020.9 - 2.7
22/11:00am 17.3 18.5 15.9 91 0.8 SSE 4 6 2 3 1021.0 - 2.7
22/10:45am 17.0 18.1 15.6 91 0.8 S 4 6 2 3 1021.1 - 2.5
22/10:30am 16.8 17.8 15.4 91 0.8 SSW 4 6 2 3 1021.1 - 2.5
22/10:15am 16.6 17.6 15.3 92 0.8 SW 4 7 2 4 1021.2 - 2.5
22/10:00am 16.3 17.5 14.9 91 0.8 SSW 2 6 1 3 1021.3 - 2.5
22/09:45am 16.3 17.5 14.8 91 0.9 ESE 2 6 1 3 1021.4 - 2.3
22/09:30am 16.3 16.7 14.7 90 0.9 ENE 6 7 3 4 1021.5 - 1.9
22/09:15am 16.3 17.0 14.6 90 1.0 ENE 4 6 2 3 1021.5 - 1.3
22/09:00am 16.4 16.5 14.4 88 1.1 NE 7 11 4 6 1021.5 - 2.5
22/08:45am 16.9 17.0 14.4 85 1.4 - 7 11 4 6 1021.3 - 0.0
22/08:30am 17.5 17.9 14.7 83 1.6 NNW 6 9 3 5 1021.2 - 0.0
22/08:15am 17.6 18.4 14.9 84 1.6 WNW 4 9 2 5 1021.1 - 0.0
22/08:00am 17.3 18.0 14.6 84 1.6 NW 4 6 2 3 1021.1 - 0.0
22/07:45am 17.3 18.0 14.5 83 1.6 N 4 6 2 3 1021.0 - 0.0
22/07:30am 17.2 17.4 14.1 82 1.8 NNW 6 11 3 6 1020.9 - 0.0
22/07:15am 17.7 17.9 14.3 80 2.0 NNE 6 11 3 6 1020.7 - 0.0
22/07:00am 17.3 17.0 14.5 83 1.6 SE 9 11 5 6 1020.6 - 0.0
22/06:45am 16.4 15.7 14.2 87 1.3 SE 11 13 6 7 1020.5 - 0.0
22/06:30am 15.5 14.2 13.6 88 1.1 SE 13 13 7 7 1020.6 - 0.0
22/06:15am 15.2 13.8 13.4 89 1.0 SE 13 13 7 7 1020.5 - 0.0
22/06:00am 15.1 14.1 13.3 89 1.0 SE 11 13 6 7 1020.5 - 0.0
22/05:45am 15.1 14.1 13.3 89 1.0 SE 11 13 6 7 1020.4 - 0.0
22/05:30am 14.8 13.7 13.2 90 0.9 SE 11 13 6 7 1020.3 - 0.0
22/05:15am 14.5 13.3 12.7 89 1.0 SE 11 13 6 7 1020.3 - 0.0
22/05:00am 14.8 14.0 12.9 88 1.1 SE 9 13 5 7 1020.2 - 0.0
22/04:45am 14.9 14.2 13.1 89 1.0 SE 9 11 5 6 1020.2 - 0.0
22/04:30am 15.1 14.8 13.2 88 1.1 ESE 7 11 4 6 1020.2 - 0.0
22/04:15am 15.1 14.8 13.3 89 1.0 ESE 7 11 4 6 1020.1 - 0.0
22/04:00am 14.9 14.2 13.2 89 0.9 SE 9 13 5 7 1020.1 - 0.0
22/03:45am 14.7 13.9 13.0 89 0.9 ESE 9 11 5 6 1020.2 - 0.0
22/03:30am 14.4 13.5 12.7 89 0.9 ESE 9 11 5 6 1020.3 - 0.0
22/03:15am 14.0 12.3 12.3 89 0.9 ESE 13 15 7 8 1020.4 - 0.0
22/03:00am 13.9 12.1 12.0 88 1.0 ESE 13 15 7 8 1020.5 - 0.0
22/02:45am 14.1 12.3 12.2 88 1.0 ESE 13 13 7 7 1020.6 - 0.0
22/02:30am 14.2 12.5 12.3 88 1.0 E 13 15 7 8 1020.8 - 0.0
22/02:15am 14.2 13.2 12.2 88 1.1 ESE 9 11 5 6 1020.9 - 0.0
22/02:00am 14.3 13.2 12.1 87 1.2 ESE 9 11 5 6 1021.0 - 0.0
22/01:45am 14.5 13.5 12.2 86 1.3 ESE 9 11 5 6 1021.1 - 0.0
22/01:30am 14.8 13.8 12.3 85 1.4 E 9 11 5 6 1021.2 - 0.0
22/01:15am 14.8 13.8 12.2 84 1.4 E 9 11 5 6 1021.4 - 0.0
22/01:00am 14.9 14.3 12.3 84 1.4 E 7 9 4 5 1021.6 - 0.0
22/12:45am 15.1 14.1 12.3 83 1.5 ESE 9 11 5 6 1021.8 - 0.0
22/12:30am 15.4 14.8 12.4 82 1.7 ESE 7 9 4 5 1021.9 - 0.0
22/12:15am 15.6 15.2 12.5 82 1.7 ESE 6 9 3 5 1022.1 - 0.0
22/12:00am 15.8 15.4 12.5 81 1.8 SE 6 6 3 3 1022.3 - 0.0
 
Date/Time
EDT
Temp
°C
App
Temp
°C
Dew
Point
°C
Rel
Hum
%
Delta-T
°C
Wind Press
QNH
hPa
Press
MSL
hPa
Rain since
9am
mm
Dir  Spd
km/h
Gust
km/h
Spd
kts
Gust
kts
21/11:45pm 16.0 15.6 12.4 79 2.0 ESE 6 7 3 4 1022.4 - 0.0
21/11:30pm 16.4 16.1 12.8 79 2.0 ESE 6 9 3 5 1022.5 - 0.0
21/11:15pm 16.5 16.3 12.9 79 2.0 ESE 6 9 3 5 1022.6 - 0.0
21/11:00pm 16.2 15.8 12.5 79 2.1 E 6 7 3 4 1022.7 - 0.0
21/10:45pm 16.4 16.0 12.4 77 2.2 E 6 7 3 4 1022.8 - 0.0
21/10:30pm 16.6 16.2 12.4 76 2.3 E 6 7 3 4 1022.9 - 0.0
21/10:15pm 17.2 17.3 12.6 74 2.6 ENE 4 7 2 4 1023.0 - 0.0
21/10:00pm 17.3 17.4 12.7 74 2.6 ENE 4 7 2 4 1023.1 - 0.0
21/09:45pm 17.3 16.8 12.6 74 2.6 E 7 9 4 5 1023.1 - 0.0
21/09:30pm 17.5 17.0 12.5 72 2.8 ENE 7 11 4 6 1023.1 - 0.0
21/09:15pm 17.8 17.3 12.6 71 2.9 ENE 7 11 4 6 1023.0 - 0.0
21/09:00pm 17.9 17.0 12.6 71 3.0 ENE 9 13 5 7 1022.9 - 0.0
21/08:45pm 17.9 17.0 12.6 71 3.0 ENE 9 15 5 8 1022.9 - 0.0
21/08:30pm 17.9 16.9 12.4 70 3.1 ENE 9 17 5 9 1022.9 - 0.0
21/08:15pm 18.0 16.3 12.4 70 3.1 ENE 13 24 7 13 1022.8 - 0.0
21/08:00pm 18.2 16.8 12.3 68 3.3 E 11 19 6 10 1022.7 - 0.0
21/07:45pm 18.4 16.2 12.2 67 3.5 ENE 15 22 8 12 1022.6 - 0.0
21/07:30pm 18.6 16.0 12.0 65 3.7 E 17 24 9 13 1022.4 - 0.0
21/07:15pm 18.8 16.6 12.0 64 3.8 E 15 24 8 13 1022.3 - 0.0
21/07:00pm 19.1 15.9 11.9 63 4.0 E 20 30 11 16 1022.2 - 0.0
21/06:45pm 19.4 16.3 12.1 62 4.1 E 20 30 11 16 1022.1 - 0.0
21/06:30pm 19.1 15.5 12.0 63 4.0 E 22 30 12 16 1022.0 - 0.0
21/06:15pm 19.6 16.6 12.0 61 4.2 E 19 30 10 16 1021.9 - 0.0
21/06:00pm 19.8 16.9 12.2 61 4.3 E 19 30 10 16 1021.9 - 0.0
21/05:45pm 20.1 16.5 11.8 59 4.6 E 22 30 12 16 1021.9 - 0.0
21/05:30pm 20.8 18.2 12.1 57 4.9 E 17 26 9 14 1021.9 - 0.0
21/05:15pm 21.0 18.3 11.8 55 5.2 E 17 28 9 15 1021.9 - 0.0
21/05:00pm 21.0 18.3 11.7 55 5.2 E 17 30 9 16 1021.9 - 0.0
21/04:45pm 21.2 18.1 11.6 54 5.4 E 19 30 10 16 1021.9 - 0.0
21/04:30pm 21.5 18.7 11.5 53 5.6 E 17 24 9 13 1021.9 - 0.0
21/04:15pm 21.6 18.8 11.3 52 5.7 ENE 17 26 9 14 1022.0 - 0.0
21/04:00pm 21.8 19.0 11.5 52 5.8 ENE 17 26 9 14 1022.0 - 0.0
21/03:45pm 21.6 18.8 11.4 52 5.7 E 17 26 9 14 1022.1 - 0.0
21/03:30pm 21.8 19.3 11.2 51 5.9 E 15 26 8 14 1022.2 - 0.0
21/03:15pm 22.0 19.5 11.1 50 6.1 E 15 22 8 12 1022.3 - 0.0
21/03:00pm 22.3 19.5 11.5 50 6.1 E 17 32 9 17 1022.5 - 0.0
21/02:45pm 21.9 19.1 11.3 51 5.9 E 17 24 9 13 1022.7 - 0.0
21/02:30pm 21.3 18.5 11.3 53 5.6 E 17 30 9 16 1023.0 - 0.0
21/02:15pm 21.8 19.0 11.5 52 5.8 E 17 24 9 13 1023.2 - 0.0
21/02:00pm 21.1 18.0 11.5 54 5.4 E 19 26 10 14 1023.4 - 0.0
21/01:45pm 21.6 18.8 11.3 52 5.7 ESE 17 26 9 14 1023.5 - 0.0
21/01:30pm 21.5 18.3 11.1 51 5.8 E 19 32 10 17 1023.7 - 0.0
21/01:15pm 21.6 19.2 11.5 52 5.7 E 15 26 8 14 1023.8 - 0.0
21/01:00pm 20.9 18.7 10.9 52 5.5 ESE 13 24 7 13 1023.9 - 0.0
21/12:45pm 21.0 18.5 10.9 52 5.6 ESE 15 28 8 15 1024.1 - 0.0
21/12:30pm 21.2 19.0 10.9 51 5.7 ESE 13 22 7 12 1024.3 - 0.0
21/12:15pm 21.0 18.3 10.4 50 5.8 E 15 26 8 14 1024.4 - 0.0
21/12:00pm 20.9 18.4 9.6 48 6.1 ESE 13 24 7 13 1023.1 - 0.0
21/11:45am 21.5 19.3 9.2 45 6.6 ENE 11 22 6 12 1024.3 - 0.0
21/11:30am 21.5 20.0 9.3 45 6.6 NE 7 19 4 10 1024.4 - 0.0
21/11:15am 21.1 18.8 9.0 46 6.5 E 11 19 6 10 1024.6 - 0.0
21/11:00am 21.2 19.5 9.8 48 6.2 E 9 19 5 10 1024.7 - 0.0
21/10:45am 20.6 18.5 9.6 49 5.9 E 11 19 6 10 1024.7 - 0.0
21/10:30am 20.4 19.0 9.6 50 5.8 E 7 15 4 8 1024.8 - 0.0
21/10:15am 20.1 18.6 9.3 49 5.8 NE 7 13 4 7 1024.8 - 0.0
21/10:00am 20.1 18.5 8.9 48 5.9 ENE 7 15 4 8 1024.7 - 0.0
21/09:45am 20.2 18.7 9.0 48 5.9 E 7 13 4 7 1024.7 - 0.0
21/09:30am 20.0 18.8 9.7 51 5.5 E 6 15 3 8 1024.7 - 0.0
21/09:15am 19.4 17.7 9.7 53 5.2 ESE 9 17 5 9 1024.7 - 0.0
21/09:00am 19.2 17.1 9.7 54 5.1 ESE 11 13 6 7 1024.8 - 2.5
21/08:45am 19.3 17.9 11.0 58 4.5 E 9 19 5 10 1024.9 - 2.5
21/08:30am 18.6 18.0 12.4 67 3.5 SE 7 11 4 6 1024.9 - 2.5
21/08:15am 18.0 17.5 12.6 70 3.0 SE 7 11 4 6 1024.8 - 2.5
21/08:00am 17.2 16.7 12.8 75 2.5 SE 7 9 4 5 1024.7 - 2.5
21/07:45am 16.7 16.2 12.5 76 2.3 SSE 7 11 4 6 1024.6 - 2.5
21/07:30am 16.4 15.8 12.4 77 2.2 SSE 7 9 4 5 1024.5 - 2.5
21/07:15am 16.2 15.6 12.3 78 2.2 SE 7 11 4 6 1024.3 - 2.5
21/07:00am 15.9 14.9 12.4 80 1.9 SE 9 11 5 6 1024.2 - 2.5
21/06:45am 15.6 14.6 12.3 81 1.8 SSE 9 11 5 6 1024.2 - 2.5
21/06:30am 15.3 14.2 12.0 81 1.8 SSE 9 11 5 6 1024.2 - 2.5
21/06:15am 15.4 14.4 12.2 81 1.8 SSE 9 11 5 6 1024.1 - 2.5
21/06:00am 15.2 14.1 12.1 82 1.7 SSE 9 9 5 5 1024.0 - 2.5
21/05:45am 15.3 14.6 12.1 81 1.8 SE 7 9 4 5 1023.9 - 2.5

Other Formats:

Comma delimited format used in spreadsheet applications
http://www.bom.gov.au/fwo/IDN60801/IDN60801.95757.axf

JavaScript Object Notation format (JSON) in row-major order
http://www.bom.gov.au/fwo/IDN60801/IDN60801.95757.json